Arhangel'Sk, Russia
Current Conditions -  °F | °C
As of 12:30 PM on Saturday 29 Nov 2014 (Local Time) from ULAA Reporting Station
Snow Showers Snow Showers  
Wind Chill: 23°   Ceiling: 500
Heat Index: 32°   Visibility: 1.3mi
Dew Point: 32°   Wind: 11mph
Humidity: 100%   Direction: 260°W
Pressure: 30.36"   Gusts: 18mph
Location:  64.5°N, 40.73°E
Report Text: ULAA 290930Z 26005G08MPS 230V290 2100 -SHSN OVC005CB M00/M00 Q1028 TEMPO 0600 +SHSN BKN003CB RMK QBB160 QFE769/1026 SC035
Loading
Personal Weather Stations






























Interactive Weather Map New forecast layout! Learn more

10-Day Weather Forecast

Advertisements
Track Severe Weather on mobile